Time;durP1;ratioP1;P1;durP2;ratioP2;P2;SDS_P1;SDS_P2;PMS_P1;PMS_P2;Temp;Humidity;BMP_temperature;BMP_pressure;BME280_temperature;BME280_humidity;BME280_pressure;Samples;Min_cycle;Max_cycle;Signal;HPM_P1;HPM_P2
2021/07/24 00:01:15;;;;;;;13.82;12.40;;;;;;;;;;5013926;28;20083;-72
2021/07/24 00:03:59;;;;;;;14.23;12.73;;;;;;;;;;5006702;28;20052;-73
2021/07/24 00:06:45;;;;;;;13.38;12.00;;;;;;;;;;5024374;28;20128;-73
2021/07/24 00:09:29;;;;;;;13.57;12.10;;;;;;;;;;5015525;28;20053;-74
2021/07/24 00:12:14;;;;;;;13.32;11.90;;;;;;;;;;5025945;28;20049;-74
2021/07/24 00:14:58;;;;;;;13.63;11.82;;;;;;;;;;5005446;28;20040;-74
2021/07/24 00:17:43;;;;;;;13.13;11.20;;;;;;;;;;5019945;28;20465;-73
2021/07/24 00:20:27;;;;;;;12.73;11.32;;;;;;;;;;5035407;28;20036;-73
2021/07/24 00:23:12;;;;;;;13.43;11.80;;;;;;;;;;5024159;28;20036;-73
2021/07/24 00:25:57;;;;;;;12.30;11.00;;;;;;;;;;5021256;28;20128;-74
2021/07/24 00:28:41;;;;;;;13.13;11.50;;;;;;;;;;5024203;28;20099;-72
2021/07/24 00:31:26;;;;;;;12.50;11.20;;;;;;;;;;5023106;28;20124;-73
2021/07/24 00:34:17;;;;;;;12.38;11.07;;;;;;;;;;4993393;28;20418;-72
2021/07/24 00:37:02;;;;;;;12.63;10.75;;;;;;;;;;5016051;28;20838;-73
2021/07/24 00:39:46;;;;;;;12.00;10.70;;;;;;;;;;5024195;28;20044;-74
2021/07/24 00:42:31;;;;;;;12.45;11.15;;;;;;;;;;5021771;28;20095;-73
2021/07/24 00:45:16;;;;;;;12.93;11.35;;;;;;;;;;5018376;28;20573;-73
2021/07/24 00:48:00;;;;;;;12.80;11.07;;;;;;;;;;5008977;28;20146;-74
2021/07/24 00:50:46;;;;;;;11.85;10.38;;;;;;;;;;5024650;28;20099;-75
2021/07/24 00:53:35;;;;;;;12.88;11.38;;;;;;;;;;5017500;28;20040;-73
2021/07/24 00:56:19;;;;;;;12.23;10.43;;;;;;;;;;5019805;28;20055;-73
2021/07/24 00:59:04;;;;;;;11.68;10.10;;;;;;;;;;5024712;28;20040;-73
2021/07/24 01:01:48;;;;;;;11.40;9.82;;;;;;;;;;5025019;28;20052;-73
2021/07/24 01:04:33;;;;;;;11.85;10.15;;;;;;;;;;5019582;28;20043;-73
2021/07/24 01:07:18;;;;;;;12.45;11.15;;;;;;;;;;5012392;28;20111;-74
2021/07/24 01:10:03;;;;;;;12.82;10.98;;;;;;;;;;5015273;28;20113;-73
2021/07/24 01:12:47;;;;;;;12.05;10.55;;;;;;;;;;5024159;28;20044;-73
2021/07/24 01:15:32;;;;;;;11.70;9.45;;;;;;;;;;5014282;28;20048;-74
2021/07/24 01:18:17;;;;;;;12.00;9.60;;;;;;;;;;5014144;28;20133;-74
2021/07/24 01:21:03;;;;;;;11.48;10.27;;;;;;;;;;5025661;28;20088;-73
2021/07/24 01:23:48;;;;;;;11.60;9.23;;;;;;;;;;5024052;28;20509;-74
2021/07/24 01:26:35;;;;;;;12.13;9.93;;;;;;;;;;5023477;28;20483;-74
2021/07/24 01:29:22;;;;;;;12.70;10.13;;;;;;;;;;5023529;28;20068;-74
2021/07/24 01:32:07;;;;;;;12.93;10.13;;;;;;;;;;5022628;28;20060;-74
2021/07/24 01:34:52;;;;;;;10.95;9.38;;;;;;;;;;5025048;28;20044;-73
2021/07/24 01:37:36;;;;;;;10.82;8.95;;;;;;;;;;5024933;28;20048;-73
2021/07/24 01:40:21;;;;;;;10.48;9.23;;;;;;;;;;5025172;28;20609;-76
2021/07/24 01:43:06;;;;;;;12.60;9.40;;;;;;;;;;5025357;28;20434;-74
2021/07/24 01:45:50;;;;;;;11.25;9.98;;;;;;;;;;5023252;28;20087;-73
2021/07/24 01:48:42;;;;;;;10.75;9.15;;;;;;;;;;5014742;28;20959;-74
2021/07/24 01:54:44;;;;;;;11.25;10.07;;;;;;;;;;5014134;28;20048;-75
2021/07/24 01:57:28;;;;;;;10.30;9.30;;;;;;;;;;5003573;28;20048;-73
2021/07/24 02:00:13;;;;;;;10.73;8.98;;;;;;;;;;5014205;28;20123;-74
2021/07/24 02:02:58;;;;;;;11.02;9.07;;;;;;;;;;5011939;28;20048;-73
2021/07/24 02:05:45;;;;;;;11.77;9.23;;;;;;;;;;5024865;28;20721;-73
2021/07/24 02:08:30;;;;;;;10.80;9.32;;;;;;;;;;5017399;28;20088;-73
2021/07/24 02:11:15;;;;;;;9.95;8.88;;;;;;;;;;5022471;28;20592;-73
2021/07/24 02:13:59;;;;;;;10.95;9.27;;;;;;;;;;5003084;28;20041;-73
2021/07/24 02:16:44;;;;;;;10.55;8.85;;;;;;;;;;5012870;28;20056;-73
2021/07/24 02:19:30;;;;;;;10.02;8.65;;;;;;;;;;5026680;28;20135;-73
2021/07/24 02:22:15;;;;;;;9.70;8.70;;;;;;;;;;5026010;28;20058;-73
2021/07/24 02:24:59;;;;;;;9.77;8.27;;;;;;;;;;5022009;28;20040;-73
2021/07/24 02:27:45;;;;;;;10.40;8.50;;;;;;;;;;5016935;28;20043;-73
2021/07/24 02:30:29;;;;;;;10.75;9.20;;;;;;;;;;5021564;28;20076;-73
2021/07/24 02:33:14;;;;;;;10.57;8.82;;;;;;;;;;5019566;28;20045;-73
2021/07/24 02:35:58;;;;;;;10.13;8.48;;;;;;;;;;5020646;28;20056;-73
2021/07/24 02:38:43;;;;;;;9.77;8.68;;;;;;;;;;5006507;28;20081;-73
2021/07/24 02:41:27;;;;;;;9.70;8.20;;;;;;;;;;5024177;28;20045;-73
2021/07/24 02:44:12;;;;;;;11.32;8.93;;;;;;;;;;5025274;28;20514;-73
2021/07/24 02:46:56;;;;;;;8.98;8.00;;;;;;;;;;5026245;28;20067;-73
2021/07/24 02:49:41;;;;;;;8.77;7.88;;;;;;;;;;5025682;28;20044;-73
2021/07/24 02:52:25;;;;;;;8.98;7.85;;;;;;;;;;5025266;28;20040;-73
2021/07/24 02:55:10;;;;;;;8.98;8.00;;;;;;;;;;5025416;28;20049;-73
2021/07/24 02:57:55;;;;;;;11.07;8.10;;;;;;;;;;5025290;28;20140;-73
2021/07/24 03:00:39;;;;;;;10.45;8.45;;;;;;;;;;5026507;28;20191;-73
2021/07/24 03:03:24;;;;;;;9.10;7.80;;;;;;;;;;5025257;28;20079;-73
2021/07/24 03:06:09;;;;;;;10.70;7.82;;;;;;;;;;5025663;28;20091;-74
2021/07/24 03:08:53;;;;;;;8.45;7.55;;;;;;;;;;5026539;28;20481;-73
2021/07/24 03:11:38;;;;;;;12.07;7.65;;;;;;;;;;5005863;28;20453;-73
2021/07/24 03:14:22;;;;;;;9.60;7.53;;;;;;;;;;5010315;28;20056;-73
2021/07/24 03:17:07;;;;;;;9.50;7.75;;;;;;;;;;5025212;28;20628;-73
2021/07/24 03:19:51;;;;;;;9.07;7.60;;;;;;;;;;5027557;28;20152;-73
2021/07/24 03:22:36;;;;;;;10.63;8.00;;;;;;;;;;5029141;28;20068;-73
2021/07/24 03:25:20;;;;;;;9.45;8.15;;;;;;;;;;5030029;28;20107;-73
2021/07/24 03:28:05;;;;;;;10.77;8.40;;;;;;;;;;5015372;28;20095;-73
2021/07/24 03:30:50;;;;;;;9.95;8.45;;;;;;;;;;5027711;28;20052;-73
2021/07/24 03:33:35;;;;;;;9.32;7.90;;;;;;;;;;5029610;28;20535;-73
2021/07/24 03:36:19;;;;;;;9.38;8.10;;;;;;;;;;5029912;28;20391;-73
2021/07/24 03:39:04;;;;;;;11.40;8.30;;;;;;;;;;5043220;28;20044;-73
2021/07/24 03:41:48;;;;;;;9.85;7.82;;;;;;;;;;5030065;28;20099;-74
2021/07/24 03:44:33;;;;;;;11.13;7.82;;;;;;;;;;5029630;28;20059;-73
2021/07/24 03:47:17;;;;;;;9.73;7.63;;;;;;;;;;5025230;28;20513;-74
2021/07/24 03:50:02;;;;;;;9.30;7.90;;;;;;;;;;5029150;28;20052;-73
2021/07/24 03:52:47;;;;;;;11.13;7.97;;;;;;;;;;5026114;28;20061;-74
2021/07/24 03:55:34;;;;;;;9.52;7.55;;;;;;;;;;5028793;28;20048;-73
2021/07/24 03:58:19;;;;;;;8.35;7.28;;;;;;;;;;5027696;28;20564;-73
2021/07/24 04:01:07;;;;;;;9.65;7.40;;;;;;;;;;5020739;28;20076;-73
2021/07/24 04:03:55;;;;;;;8.55;7.03;;;;;;;;;;5015331;28;20133;-74
2021/07/24 04:06:39;;;;;;;9.65;7.07;;;;;;;;;;5029010;28;20041;-73
2021/07/24 04:09:24;;;;;;;12.43;7.80;;;;;;;;;;5020902;28;20044;-73
2021/07/24 04:12:10;;;;;;;8.55;6.95;;;;;;;;;;5027982;28;20036;-73
2021/07/24 04:14:55;;;;;;;8.95;7.20;;;;;;;;;;5026200;28;20076;-73
2021/07/24 04:17:40;;;;;;;8.07;7.13;;;;;;;;;;5009883;28;20049;-73
2021/07/24 04:20:24;;;;;;;9.38;7.05;;;;;;;;;;5025398;28;20076;-73
2021/07/24 04:23:09;;;;;;;8.68;7.38;;;;;;;;;;5013434;28;20045;-73
2021/07/24 04:25:54;;;;;;;8.98;7.32;;;;;;;;;;5027103;28;20509;-73
2021/07/24 04:28:38;;;;;;;10.55;7.35;;;;;;;;;;5028559;28;20045;-73
2021/07/24 04:31:23;;;;;;;10.98;7.28;;;;;;;;;;5026607;28;20176;-73
2021/07/24 04:34:07;;;;;;;9.88;7.35;;;;;;;;;;5027758;28;20632;-73
2021/07/24 04:36:52;;;;;;;9.18;6.88;;;;;;;;;;5028876;28;20064;-73
2021/07/24 04:39:37;;;;;;;9.70;6.97;;;;;;;;;;5027388;28;20088;-74
2021/07/24 04:42:21;;;;;;;10.98;7.32;;;;;;;;;;5027173;28;20044;-73
2021/07/24 04:45:06;;;;;;;9.10;6.95;;;;;;;;;;5028631;28;20163;-73
2021/07/24 04:47:51;;;;;;;10.07;7.43;;;;;;;;;;5027137;28;20087;-73
2021/07/24 04:50:35;;;;;;;8.70;7.05;;;;;;;;;;5024590;28;20040;-73
2021/07/24 04:53:20;;;;;;;9.48;7.20;;;;;;;;;;5025096;28;20048;-73
2021/07/24 04:56:04;;;;;;;9.70;7.15;;;;;;;;;;5010934;28;20056;-73
2021/07/24 04:58:49;;;;;;;9.07;7.28;;;;;;;;;;5025495;28;20106;-73
2021/07/24 05:01:34;;;;;;;8.90;6.90;;;;;;;;;;5009734;28;20076;-74
2021/07/24 05:04:19;;;;;;;8.93;7.35;;;;;;;;;;5024711;28;20069;-73
2021/07/24 05:07:04;;;;;;;9.15;7.65;;;;;;;;;;5013929;28;20508;-73
2021/07/24 05:09:49;;;;;;;9.02;6.97;;;;;;;;;;5024744;28;20050;-73
2021/07/24 05:12:33;;;;;;;12.77;8.07;;;;;;;;;;5025947;28;20132;-73
2021/07/24 05:15:18;;;;;;;10.98;7.32;;;;;;;;;;5025623;28;20051;-73
2021/07/24 05:18:02;;;;;;;10.77;7.80;;;;;;;;;;5017543;28;20660;-74
2021/07/24 05:20:47;;;;;;;10.40;7.63;;;;;;;;;;5024242;28;20044;-73
2021/07/24 05:23:32;;;;;;;10.30;7.82;;;;;;;;;;5003771;28;20068;-74
2021/07/24 05:26:16;;;;;;;9.10;7.90;;;;;;;;;;5023754;28;20040;-74
2021/07/24 05:29:01;;;;;;;10.50;7.57;;;;;;;;;;5024915;28;20118;-73
2021/07/24 05:31:46;;;;;;;10.43;7.72;;;;;;;;;;5023467;28;20044;-73
2021/07/24 05:34:30;;;;;;;10.93;8.00;;;;;;;;;;5024206;28;20512;-73
2021/07/24 05:37:15;;;;;;;9.95;7.63;;;;;;;;;;5005715;28;20057;-73
2021/07/24 05:39:59;;;;;;;11.55;8.20;;;;;;;;;;5010169;28;20117;-74
2021/07/24 05:42:44;;;;;;;9.88;7.72;;;;;;;;;;5021932;28;20528;-73
2021/07/24 05:45:28;;;;;;;9.80;7.38;;;;;;;;;;5008996;28;20044;-73
2021/07/24 05:48:13;;;;;;;8.10;7.03;;;;;;;;;;5011276;28;20087;-73
2021/07/24 05:50:57;;;;;;;8.52;6.50;;;;;;;;;;5019818;28;20036;-73
2021/07/24 05:53:42;;;;;;;8.65;7.43;;;;;;;;;;5009262;28;20189;-74
2021/07/24 05:56:26;;;;;;;8.35;6.15;;;;;;;;;;5023592;28;20045;-73
2021/07/24 05:59:11;;;;;;;11.10;7.28;;;;;;;;;;5025396;28;20107;-73
2021/07/24 06:01:55;;;;;;;9.00;6.72;;;;;;;;;;5018939;28;20044;-73
2021/07/24 06:04:40;;;;;;;8.52;7.13;;;;;;;;;;5024525;28;20048;-73
2021/07/24 06:07:25;;;;;;;9.77;6.82;;;;;;;;;;5023791;28;20051;-74
2021/07/24 06:10:10;;;;;;;9.00;6.65;;;;;;;;;;5019545;28;20113;-73
2021/07/24 06:12:54;;;;;;;8.60;6.82;;;;;;;;;;5003982;28;20037;-75
2021/07/24 06:15:42;;;;;;;8.25;6.60;;;;;;;;;;5014099;28;20083;-73
2021/07/24 06:18:27;;;;;;;7.75;6.18;;;;;;;;;;5006673;28;20052;-74
2021/07/24 06:21:15;;;;;;;7.75;6.35;;;;;;;;;;5009025;28;20108;-73
2021/07/24 06:24:00;;;;;;;7.07;6.20;;;;;;;;;;5009087;28;20518;-73
2021/07/24 06:26:45;;;;;;;9.35;6.43;;;;;;;;;;5019014;28;20071;-74
2021/07/24 06:29:30;;;;;;;7.20;6.25;;;;;;;;;;5022367;28;20406;-75
2021/07/24 06:32:15;;;;;;;8.27;5.82;;;;;;;;;;5019425;28;20079;-74
2021/07/24 06:34:59;;;;;;;9.10;6.60;;;;;;;;;;5022092;28;20125;-76
2021/07/24 06:37:44;;;;;;;11.82;5.88;;;;;;;;;;5018199;28;20052;-72
2021/07/24 06:40:28;;;;;;;7.47;6.22;;;;;;;;;;5021577;28;20145;-73
2021/07/24 06:43:13;;;;;;;8.85;5.95;;;;;;;;;;5022217;28;20576;-73
2021/07/24 06:45:58;;;;;;;6.95;5.90;;;;;;;;;;5022740;28;20131;-73
2021/07/24 06:48:42;;;;;;;8.57;5.90;;;;;;;;;;5007186;28;20549;-73
2021/07/24 06:51:26;;;;;;;7.50;5.95;;;;;;;;;;5015759;28;20104;-73
2021/07/24 06:54:11;;;;;;;7.90;5.93;;;;;;;;;;4992389;28;20505;-73
2021/07/24 06:56:56;;;;;;;8.20;5.65;;;;;;;;;;5026496;28;20748;-73
2021/07/24 06:59:40;;;;;;;8.20;5.72;;;;;;;;;;5028027;28;20087;-73
2021/07/24 07:02:25;;;;;;;6.97;5.78;;;;;;;;;;5027725;28;20690;-73
2021/07/24 07:05:10;;;;;;;8.30;5.82;;;;;;;;;;5026152;28;20063;-75
2021/07/24 07:07:54;;;;;;;6.72;5.45;;;;;;;;;;4999133;28;20394;-74
2021/07/24 07:10:39;;;;;;;7.15;5.40;;;;;;;;;;5026832;28;20517;-74
2021/07/24 07:13:23;;;;;;;7.43;5.57;;;;;;;;;;5015976;28;20044;-73
2021/07/24 07:16:08;;;;;;;6.90;5.25;;;;;;;;;;5024927;28;20037;-74
2021/07/24 07:18:53;;;;;;;6.57;5.10;;;;;;;;;;4995352;28;20048;-74
2021/07/24 07:21:37;;;;;;;8.48;5.80;;;;;;;;;;5000553;28;20120;-73
2021/07/24 07:24:22;;;;;;;7.93;5.38;;;;;;;;;;5010217;28;20040;-74
2021/07/24 07:27:06;;;;;;;8.27;5.57;;;;;;;;;;5019647;28;20033;-73
2021/07/24 07:29:51;;;;;;;8.05;5.72;;;;;;;;;;5002276;28;20461;-73
2021/07/24 07:32:35;;;;;;;6.35;5.10;;;;;;;;;;5019218;28;20088;-74
2021/07/24 07:35:20;;;;;;;7.35;5.47;;;;;;;;;;5026264;28;20052;-73
2021/07/24 07:38:05;;;;;;;7.15;5.30;;;;;;;;;;5023092;28;20659;-73
2021/07/24 07:40:49;;;;;;;6.32;5.25;;;;;;;;;;5025732;28;20088;-74
2021/07/24 07:43:34;;;;;;;6.63;5.05;;;;;;;;;;5017112;28;20057;-74
2021/07/24 07:46:19;;;;;;;7.05;4.78;;;;;;;;;;5017971;28;20033;-74
2021/07/24 07:49:03;;;;;;;9.05;5.25;;;;;;;;;;5002072;28;20594;-73
2021/07/24 07:51:48;;;;;;;6.07;5.10;;;;;;;;;;5022043;28;20195;-73
2021/07/24 07:54:33;;;;;;;6.93;4.72;;;;;;;;;;5018981;28;20045;-74
2021/07/24 07:57:17;;;;;;;5.95;4.60;;;;;;;;;;5010425;28;20056;-75
2021/07/24 08:00:02;;;;;;;5.15;4.60;;;;;;;;;;5023950;28;20053;-73
2021/07/24 08:02:50;;;;;;;5.47;4.82;;;;;;;;;;5010028;28;20544;-73
2021/07/24 08:05:35;;;;;;;5.18;4.40;;;;;;;;;;5025867;28;20111;-76
2021/07/24 08:08:20;;;;;;;5.45;4.60;;;;;;;;;;5025882;28;20148;-73
2021/07/24 08:11:05;;;;;;;6.18;4.65;;;;;;;;;;5025527;28;20096;-73
2021/07/24 08:13:50;;;;;;;6.05;4.60;;;;;;;;;;5011260;28;20044;-74
2021/07/24 08:16:34;;;;;;;5.70;4.60;;;;;;;;;;5024830;28;20069;-74
2021/07/24 08:19:19;;;;;;;6.93;4.55;;;;;;;;;;5023287;28;20516;-73
2021/07/24 08:22:04;;;;;;;6.10;4.63;;;;;;;;;;5025948;28;20039;-74
2021/07/24 08:24:48;;;;;;;5.60;4.43;;;;;;;;;;5022514;28;20039;-73
2021/07/24 08:27:33;;;;;;;5.65;4.45;;;;;;;;;;5025908;28;20164;-72
2021/07/24 08:30:18;;;;;;;7.50;4.55;;;;;;;;;;5023856;28;20059;-72
2021/07/24 08:33:03;;;;;;;5.07;4.40;;;;;;;;;;5023857;28;20055;-72
2021/07/24 08:35:47;;;;;;;5.38;4.28;;;;;;;;;;5008157;28;20103;-72
2021/07/24 08:38:32;;;;;;;6.18;4.57;;;;;;;;;;5009183;28;20091;-73
2021/07/24 08:41:17;;;;;;;6.53;4.28;;;;;;;;;;5023255;28;20152;-73
2021/07/24 08:44:01;;;;;;;5.95;4.43;;;;;;;;;;5022622;28;20741;-73
2021/07/24 08:46:46;;;;;;;8.18;4.57;;;;;;;;;;5023949;28;20099;-73
2021/07/24 08:49:30;;;;;;;4.65;4.15;;;;;;;;;;5023939;28;20517;-73
2021/07/24 08:52:17;;;;;;;5.82;4.70;;;;;;;;;;5023853;28;20056;-73
2021/07/24 08:55:03;;;;;;;6.43;4.60;;;;;;;;;;5018434;28;20048;-74
2021/07/24 08:57:48;;;;;;;5.10;4.28;;;;;;;;;;5010480;28;20059;-73
2021/07/24 09:00:32;;;;;;;7.22;4.40;;;;;;;;;;5009888;28;20040;-73
2021/07/24 09:03:21;;;;;;;5.15;4.03;;;;;;;;;;5024231;28;20049;-74
2021/07/24 09:06:05;;;;;;;4.80;4.03;;;;;;;;;;5023975;28;20049;-75
2021/07/24 09:08:51;;;;;;;4.78;3.92;;;;;;;;;;5013027;28;20120;-74
2021/07/24 09:11:37;;;;;;;5.55;4.18;;;;;;;;;;5024403;28;20107;-74
2021/07/24 09:14:22;;;;;;;6.15;4.13;;;;;;;;;;5025865;28;20091;-74
2021/07/24 09:17:08;;;;;;;5.05;4.07;;;;;;;;;;5019201;28;20099;-75
2021/07/24 09:19:52;;;;;;;6.90;4.53;;;;;;;;;;5021195;28;20049;-74
2021/07/24 09:22:41;;;;;;;5.93;3.72;;;;;;;;;;5024030;28;20686;-74
2021/07/24 09:25:25;;;;;;;4.53;3.90;;;;;;;;;;5023322;28;20080;-74
2021/07/24 09:28:11;;;;;;;5.25;4.18;;;;;;;;;;5023353;28;20886;-75
2021/07/24 09:30:56;;;;;;;4.45;3.95;;;;;;;;;;5022918;28;20080;-74
2021/07/24 09:33:49;;;;;;;6.93;4.22;;;;;;;;;;5023344;28;20541;-75
2021/07/24 09:36:33;;;;;;;4.85;4.18;;;;;;;;;;5016077;28;20107;-74
2021/07/24 09:39:19;;;;;;;5.97;4.65;;;;;;;;;;5013124;28;20044;-74
2021/07/24 09:42:12;;;;;;;7.65;4.60;;;;;;;;;;5024902;28;20060;-74
2021/07/24 09:45:06;;;;;;;8.55;4.68;;;;;;;;;;5007611;28;20040;-74
2021/07/24 09:47:55;;;;;;;5.28;4.50;;;;;;;;;;5013020;28;20103;-75
2021/07/24 09:50:41;;;;;;;7.22;4.50;;;;;;;;;;5019399;28;20095;-75
2021/07/24 09:53:35;;;;;;;6.35;4.68;;;;;;;;;;5022476;28;20288;-74
2021/07/24 09:56:20;;;;;;;8.65;4.72;;;;;;;;;;5020095;28;20048;-74
2021/07/24 09:59:15;;;;;;;6.97;4.75;;;;;;;;;;5029227;28;20132;-74
2021/07/24 10:02:00;;;;;;;5.90;4.90;;;;;;;;;;5024215;28;20115;-74
2021/07/24 10:04:45;;;;;;;6.55;5.38;;;;;;;;;;5022700;28;20035;-75
2021/07/24 10:07:30;;;;;;;6.97;5.25;;;;;;;;;;5022173;28;20895;-74
2021/07/24 10:10:16;;;;;;;6.78;5.60;;;;;;;;;;5023419;28;20208;-75
2021/07/24 10:13:02;;;;;;;6.10;5.50;;;;;;;;;;5022542;28;20124;-74
2021/07/24 10:15:46;;;;;;;6.60;5.88;;;;;;;;;;5032132;28;20090;-74
2021/07/24 10:18:31;;;;;;;7.78;6.03;;;;;;;;;;5021243;28;20428;-74
2021/07/24 10:21:16;;;;;;;7.22;5.68;;;;;;;;;;4999025;28;20088;-75
2021/07/24 10:24:00;;;;;;;8.10;6.40;;;;;;;;;;5020558;28;20135;-74
2021/07/24 10:26:49;;;;;;;6.57;5.88;;;;;;;;;;5013879;28;20037;-74
2021/07/24 10:29:39;;;;;;;7.82;6.90;;;;;;;;;;5019504;28;20207;-74
2021/07/24 10:32:27;;;;;;;8.02;6.53;;;;;;;;;;5019465;28;20512;-74
2021/07/24 10:35:11;;;;;;;8.80;7.10;;;;;;;;;;5013256;28;20107;-74
2021/07/24 10:37:56;;;;;;;8.63;7.32;;;;;;;;;;5023165;28;20076;-74
2021/07/24 10:40:41;;;;;;;10.40;7.38;;;;;;;;;;5019566;28;20091;-74
2021/07/24 10:43:45;;;;;;;8.95;7.07;;;;;;;;;;5031821;28;20045;-74
2021/07/24 10:46:45;;;;;;;8.77;7.53;;;;;;;;;;4999240;28;20092;-74
2021/07/24 10:49:29;;;;;;;10.80;7.65;;;;;;;;;;5022273;28;20048;-75
2021/07/24 10:52:14;;;;;;;10.25;7.45;;;;;;;;;;5023361;28;20091;-74
2021/07/24 10:55:11;;;;;;;8.98;7.65;;;;;;;;;;5019485;28;20125;-74
2021/07/24 10:58:02;;;;;;;10.93;8.45;;;;;;;;;;5020620;28;20099;-74
2021/07/24 11:01:00;;;;;;;12.50;8.48;;;;;;;;;;5017806;28;20094;-75
2021/07/24 11:03:46;;;;;;;9.95;7.95;;;;;;;;;;5019839;28;20064;-74
2021/07/24 11:06:32;;;;;;;13.57;8.55;;;;;;;;;;5021559;28;20044;-74
2021/07/24 11:09:18;;;;;;;13.15;8.35;;;;;;;;;;5018614;28;20111;-74
2021/07/24 11:12:06;;;;;;;10.57;8.05;;;;;;;;;;5020112;28;20040;-74
2021/07/24 11:14:51;;;;;;;13.05;8.18;;;;;;;;;;5021576;28;20505;-74
2021/07/24 11:17:35;;;;;;;10.43;8.50;;;;;;;;;;5019251;28;20166;-75
2021/07/24 11:20:24;;;;;;;11.90;8.18;;;;;;;;;;5020060;28;20502;-75
2021/07/24 11:23:08;;;;;;;12.77;8.60;;;;;;;;;;5021035;28;20426;-74
2021/07/24 11:25:54;;;;;;;10.40;7.75;;;;;;;;;;5016551;28;20115;-74
2021/07/24 11:28:40;;;;;;;10.05;7.90;;;;;;;;;;5021366;28;20091;-74
2021/07/24 11:31:25;;;;;;;12.50;8.45;;;;;;;;;;5018042;28;20071;-74
2021/07/24 11:34:09;;;;;;;14.80;8.52;;;;;;;;;;5014873;28;20087;-74
2021/07/24 11:36:53;;;;;;;12.50;8.30;;;;;;;;;;5021223;28;20045;-74
2021/07/24 11:39:38;;;;;;;12.07;8.00;;;;;;;;;;5006804;28;20122;-75
2021/07/24 11:42:23;;;;;;;12.52;7.95;;;;;;;;;;5021967;28;20104;-73
2021/07/24 11:45:08;;;;;;;11.15;7.97;;;;;;;;;;5024253;28;20071;-74
2021/07/24 11:48:06;;;;;;;10.27;7.30;;;;;;;;;;5010906;28;20037;-74
2021/07/24 11:50:51;;;;;;;11.73;7.13;;;;;;;;;;5025279;28;20103;-74
2021/07/24 11:53:36;;;;;;;10.80;7.65;;;;;;;;;;5023062;28;20442;-74
2021/07/24 11:56:20;;;;;;;9.40;7.10;;;;;;;;;;5012424;28;20080;-73
2021/07/24 11:59:05;;;;;;;9.32;7.18;;;;;;;;;;5016456;28;20044;-74
2021/07/24 12:01:49;;;;;;;10.07;7.25;;;;;;;;;;5001389;28;20072;-73
2021/07/24 12:04:34;;;;;;;9.45;7.00;;;;;;;;;;5023176;28;20160;-73
2021/07/24 12:07:19;;;;;;;8.00;6.53;;;;;;;;;;5024446;28;20044;-74
2021/07/24 12:10:04;;;;;;;8.98;6.85;;;;;;;;;;5023440;28;20045;-74
2021/07/24 12:12:49;;;;;;;8.77;6.88;;;;;;;;;;5020647;28;20096;-76
2021/07/24 12:15:52;;;;;;;10.43;6.35;;;;;;;;;;5021643;28;20613;-74
2021/07/24 12:18:38;;;;;;;8.88;6.93;;;;;;;;;;5026975;28;20084;-74
2021/07/24 12:21:23;;;;;;;8.05;7.05;;;;;;;;;;5024557;28;20099;-74
2021/07/24 12:24:08;;;;;;;10.65;7.90;;;;;;;;;;5007348;28;20044;-74
2021/07/24 12:27:04;;;;;;;10.95;7.47;;;;;;;;;;5009284;28;20091;-74
2021/07/24 12:29:49;;;;;;;9.38;7.30;;;;;;;;;;5022669;28;20041;-74
2021/07/24 12:32:37;;;;;;;9.27;7.28;;;;;;;;;;5024504;28;20099;-74
2021/07/24 12:35:25;;;;;;;8.90;7.82;;;;;;;;;;5025529;28;20048;-74
2021/07/24 12:38:10;;;;;;;9.10;7.13;;;;;;;;;;5025256;28;20050;-73
2021/07/24 12:41:03;;;;;;;10.52;7.35;;;;;;;;;;5025654;28;20056;-74
2021/07/24 12:44:03;;;;;;;10.13;7.22;;;;;;;;;;5026118;28;20176;-74
2021/07/24 12:46:54;;;;;;;10.63;7.80;;;;;;;;;;5025607;28;20125;-74
2021/07/24 12:49:41;;;;;;;8.77;7.22;;;;;;;;;;5023638;28;20737;-73
2021/07/24 12:52:30;;;;;;;10.93;7.78;;;;;;;;;;5023405;28;20099;-73
2021/07/24 12:55:17;;;;;;;10.25;7.90;;;;;;;;;;5024824;28;20048;-73
2021/07/24 12:58:02;;;;;;;9.10;7.60;;;;;;;;;;5024355;28;20079;-74
2021/07/24 13:00:47;;;;;;;8.70;7.68;;;;;;;;;;5024482;28;20118;-74
2021/07/24 13:03:31;;;;;;;10.50;8.60;;;;;;;;;;5022511;28;20053;-74
2021/07/24 13:06:16;;;;;;;9.52;7.53;;;;;;;;;;5023182;28;20044;-74
2021/07/24 13:09:01;;;;;;;10.60;7.57;;;;;;;;;;5005187;28;20084;-73
2021/07/24 13:11:46;;;;;;;9.20;7.68;;;;;;;;;;5023139;28;20410;-74
2021/07/24 13:14:30;;;;;;;10.05;8.13;;;;;;;;;;5025095;28;20052;-74
2021/07/24 13:17:15;;;;;;;10.05;7.60;;;;;;;;;;5025792;28;20115;-74
2021/07/24 13:20:00;;;;;;;9.93;7.97;;;;;;;;;;5023899;28;20048;-74
2021/07/24 13:22:45;;;;;;;10.05;8.40;;;;;;;;;;5005127;28;20076;-74
2021/07/24 13:28:20;;;;;;;10.00;8.10;;;;;;;;;;5011428;28;20048;-74
2021/07/24 13:31:04;;;;;;;10.35;8.15;;;;;;;;;;5025617;28;20044;-75
2021/07/24 13:33:49;;;;;;;9.23;8.20;;;;;;;;;;5024779;28;20403;-74
2021/07/24 13:36:33;;;;;;;9.68;7.60;;;;;;;;;;5024374;28;20083;-73
2021/07/24 13:39:18;;;;;;;10.38;8.07;;;;;;;;;;5021965;28;20052;-74
2021/07/24 13:42:03;;;;;;;9.07;8.18;;;;;;;;;;5023550;28;20117;-75
2021/07/24 13:44:47;;;;;;;9.15;7.80;;;;;;;;;;5024809;28;20031;-73
2021/07/24 13:47:32;;;;;;;10.00;7.88;;;;;;;;;;5023708;28;20048;-74
2021/07/24 13:50:16;;;;;;;10.55;8.40;;;;;;;;;;5009144;28;20167;-74
2021/07/24 13:53:01;;;;;;;9.73;8.23;;;;;;;;;;5005060;28;20091;-73
2021/07/24 13:55:46;;;;;;;10.93;7.63;;;;;;;;;;5036111;28;20047;-72
2021/07/24 13:58:30;;;;;;;10.20;7.82;;;;;;;;;;5034826;28;20048;-73
2021/07/24 14:01:15;;;;;;;9.23;7.68;;;;;;;;;;5027474;28;20577;-73
2021/07/24 14:03:59;;;;;;;8.85;7.68;;;;;;;;;;5021038;28;20922;-74
2021/07/24 14:06:44;;;;;;;11.20;7.55;;;;;;;;;;5017553;28;20596;-74
2021/07/24 14:09:28;;;;;;;9.00;7.75;;;;;;;;;;5021668;28;20571;-73
2021/07/24 14:12:13;;;;;;;11.18;7.75;;;;;;;;;;5007742;28;20399;-74
2021/07/24 14:14:58;;;;;;;9.07;6.93;;;;;;;;;;5022420;28;20055;-73
2021/07/24 14:17:42;;;;;;;8.43;7.50;;;;;;;;;;5007560;28;20053;-73
2021/07/24 14:20:29;;;;;;;9.32;7.20;;;;;;;;;;5022037;28;20079;-73
2021/07/24 14:23:13;;;;;;;10.07;7.57;;;;;;;;;;5022814;28;20080;-74
2021/07/24 14:25:59;;;;;;;8.35;7.20;;;;;;;;;;5017424;28;20036;-73
2021/07/24 14:28:43;;;;;;;8.93;6.85;;;;;;;;;;5023877;28;20040;-73
2021/07/24 14:31:28;;;;;;;8.55;6.95;;;;;;;;;;5022767;28;20526;-73
2021/07/24 14:34:13;;;;;;;8.65;6.93;;;;;;;;;;5022685;28;20040;-73
2021/07/24 14:36:58;;;;;;;7.55;6.82;;;;;;;;;;5003756;28;20125;-74
2021/07/24 14:39:42;;;;;;;8.77;7.10;;;;;;;;;;5008014;28;20099;-74
2021/07/24 14:42:30;;;;;;;8.48;6.70;;;;;;;;;;5024156;28;20048;-73
2021/07/24 14:45:17;;;;;;;8.02;6.72;;;;;;;;;;5017121;28;20450;-73
2021/07/24 14:48:02;;;;;;;8.68;6.47;;;;;;;;;;5025207;28;20091;-74
2021/07/24 14:50:46;;;;;;;8.55;6.63;;;;;;;;;;5022859;28;20053;-74
2021/07/24 14:53:31;;;;;;;8.52;6.35;;;;;;;;;;5023756;28;20470;-73
2021/07/24 14:56:16;;;;;;;9.88;6.75;;;;;;;;;;5019836;28;20048;-74
2021/07/24 14:59:00;;;;;;;9.00;6.60;;;;;;;;;;5008719;28;20056;-73
2021/07/24 15:01:45;;;;;;;9.05;6.43;;;;;;;;;;5021978;28;20143;-73
2021/07/24 15:04:30;;;;;;;7.72;6.30;;;;;;;;;;5016333;28;20041;-73
2021/07/24 15:07:14;;;;;;;7.38;6.55;;;;;;;;;;5018776;28;20048;-73
2021/07/24 15:09:59;;;;;;;7.63;6.45;;;;;;;;;;5023166;28;20056;-73
2021/07/24 15:12:43;;;;;;;7.50;6.78;;;;;;;;;;5022950;28;20053;-73
2021/07/24 15:15:28;;;;;;;8.23;6.30;;;;;;;;;;5022255;28;20879;-74
2021/07/24 15:18:13;;;;;;;7.18;6.35;;;;;;;;;;5024914;28;20048;-74
2021/07/24 15:20:57;;;;;;;9.05;6.57;;;;;;;;;;5026085;28;20059;-74
2021/07/24 15:23:42;;;;;;;6.68;5.97;;;;;;;;;;5027693;28;20752;-74
2021/07/24 15:26:26;;;;;;;9.80;5.95;;;;;;;;;;5012498;28;20076;-74
2021/07/24 15:29:11;;;;;;;7.45;6.18;;;;;;;;;;5027772;28;20128;-73
2021/07/24 15:31:56;;;;;;;7.25;5.93;;;;;;;;;;5026930;28;20051;-73
2021/07/24 15:34:41;;;;;;;6.38;5.78;;;;;;;;;;5027826;28;20091;-73
2021/07/24 15:37:25;;;;;;;8.98;6.22;;;;;;;;;;5026941;28;20106;-74
2021/07/24 15:40:10;;;;;;;7.22;5.57;;;;;;;;;;5014855;28;20497;-74
2021/07/24 15:42:55;;;;;;;8.10;5.95;;;;;;;;;;5027094;28;20060;-73
2021/07/24 15:45:39;;;;;;;6.57;5.75;;;;;;;;;;5026764;28;20040;-74
2021/07/24 15:48:24;;;;;;;7.25;5.63;;;;;;;;;;5025741;28;20044;-74
2021/07/24 15:51:09;;;;;;;5.90;5.30;;;;;;;;;;5025574;28;20171;-74
2021/07/24 15:53:53;;;;;;;6.72;5.18;;;;;;;;;;5026925;28;20580;-74
2021/07/24 15:56:38;;;;;;;7.47;5.60;;;;;;;;;;5012441;28;20536;-73
2021/07/24 15:59:22;;;;;;;6.03;5.13;;;;;;;;;;5010911;28;20497;-73
2021/07/24 16:02:07;;;;;;;5.82;5.13;;;;;;;;;;5023294;28;20044;-73
2021/07/24 16:04:51;;;;;;;5.95;4.97;;;;;;;;;;5009100;28;20091;-74
2021/07/24 16:07:35;;;;;;;6.88;5.35;;;;;;;;;;5022462;28;20130;-74
2021/07/24 16:10:20;;;;;;;7.75;5.00;;;;;;;;;;5023489;28;20044;-74
2021/07/24 16:13:05;;;;;;;5.55;4.70;;;;;;;;;;5023951;28;20090;-73
2021/07/24 16:15:49;;;;;;;7.50;5.00;;;;;;;;;;4992499;28;20049;-74
2021/07/24 16:18:34;;;;;;;8.73;4.80;;;;;;;;;;5026744;28;20756;-73
2021/07/24 16:21:19;;;;;;;5.80;5.15;;;;;;;;;;5025175;28;20036;-74
2021/07/24 16:24:04;;;;;;;7.20;4.40;;;;;;;;;;5024088;28;20044;-75
2021/07/24 16:26:49;;;;;;;7.00;4.75;;;;;;;;;;5026828;28;20497;-74
2021/07/24 16:29:33;;;;;;;5.88;4.95;;;;;;;;;;5025637;28;21115;-73
2021/07/24 16:32:18;;;;;;;5.93;4.70;;;;;;;;;;5024788;28;20040;-73